sensor_id;sensor_type;location;lat;lon;timestamp;P1;durP1;ratioP1;P2;durP2;ratioP2
56299;SDS011;42209;6.376;-10.782;2024-01-15T00:02:06;4.78;;;3.55;;
56299;SDS011;42209;6.376;-10.782;2024-01-15T00:04:37;3.45;;;3.10;;
56299;SDS011;42209;6.376;-10.782;2024-01-15T00:07:07;4.18;;;3.25;;
56299;SDS011;42209;6.376;-10.782;2024-01-15T00:09:36;4.45;;;2.70;;
56299;SDS011;42209;6.376;-10.782;2024-01-15T00:12:04;3.63;;;2.92;;
56299;SDS011;42209;6.376;-10.782;2024-01-15T00:14:33;3.05;;;2.63;;
56299;SDS011;42209;6.376;-10.782;2024-01-15T00:17:02;3.33;;;3.03;;
56299;SDS011;42209;6.376;-10.782;2024-01-15T00:19:30;4.35;;;3.97;;
56299;SDS011;42209;6.376;-10.782;2024-01-15T00:24:27;3.85;;;2.53;;
56299;SDS011;42209;6.376;-10.782;2024-01-15T00:26:56;3.83;;;3.13;;
56299;SDS011;42209;6.376;-10.782;2024-01-15T00:29:24;3.42;;;3.13;;
56299;SDS011;42209;6.376;-10.782;2024-01-15T00:31:52;3.22;;;2.80;;
56299;SDS011;42209;6.376;-10.782;2024-01-15T00:34:21;4.03;;;3.63;;
56299;SDS011;42209;6.376;-10.782;2024-01-15T00:39:18;4.18;;;3.40;;
56299;SDS011;42209;6.376;-10.782;2024-01-15T00:41:46;4.40;;;3.08;;
56299;SDS011;42209;6.376;-10.782;2024-01-15T00:44:15;2.90;;;2.70;;
56299;SDS011;42209;6.376;-10.782;2024-01-15T00:46:43;4.00;;;2.70;;
56299;SDS011;42209;6.376;-10.782;2024-01-15T00:49:13;3.63;;;2.95;;
56299;SDS011;42209;6.376;-10.782;2024-01-15T00:51:41;3.88;;;2.90;;
56299;SDS011;42209;6.376;-10.782;2024-01-15T00:54:10;3.05;;;2.75;;
56299;SDS011;42209;6.376;-10.782;2024-01-15T00:56:38;3.20;;;2.75;;
56299;SDS011;42209;6.376;-10.782;2024-01-15T00:59:07;3.17;;;2.53;;
56299;SDS011;42209;6.376;-10.782;2024-01-15T01:01:35;2.92;;;2.53;;
56299;SDS011;42209;6.376;-10.782;2024-01-15T01:04:04;3.38;;;3.08;;
56299;SDS011;42209;6.376;-10.782;2024-01-15T01:06:32;5.53;;;2.63;;
56299;SDS011;42209;6.376;-10.782;2024-01-15T01:09:01;3.08;;;2.78;;
56299;SDS011;42209;6.376;-10.782;2024-01-15T01:11:29;4.93;;;2.75;;
56299;SDS011;42209;6.376;-10.782;2024-01-15T01:13:58;5.25;;;3.42;;
56299;SDS011;42209;6.376;-10.782;2024-01-15T01:16:26;3.08;;;2.53;;
56299;SDS011;42209;6.376;-10.782;2024-01-15T01:18:55;3.58;;;2.50;;
56299;SDS011;42209;6.376;-10.782;2024-01-15T01:23:52;3.92;;;2.42;;
56299;SDS011;42209;6.376;-10.782;2024-01-15T01:26:20;3.45;;;2.63;;
56299;SDS011;42209;6.376;-10.782;2024-01-15T01:31:17;4.88;;;2.58;;
56299;SDS011;42209;6.376;-10.782;2024-01-15T01:33:45;2.70;;;2.50;;
56299;SDS011;42209;6.376;-10.782;2024-01-15T01:36:14;2.42;;;2.22;;
56299;SDS011;42209;6.376;-10.782;2024-01-15T01:41:10;2.47;;;2.28;;
56299;SDS011;42209;6.376;-10.782;2024-01-15T01:43:39;3.45;;;2.80;;
56299;SDS011;42209;6.376;-10.782;2024-01-15T01:46:07;4.57;;;2.92;;
56299;SDS011;42209;6.376;-10.782;2024-01-15T01:48:36;5.50;;;3.13;;
56299;SDS011;42209;6.376;-10.782;2024-01-15T01:51:05;2.85;;;2.60;;
56299;SDS011;42209;6.376;-10.782;2024-01-15T01:53:33;2.97;;;2.65;;
56299;SDS011;42209;6.376;-10.782;2024-01-15T01:56:04;2.75;;;2.55;;
56299;SDS011;42209;6.376;-10.782;2024-01-15T01:58:33;2.80;;;2.60;;
56299;SDS011;42209;6.376;-10.782;2024-01-15T02:01:02;2.47;;;2.28;;
56299;SDS011;42209;6.376;-10.782;2024-01-15T02:03:30;2.47;;;2.05;;
56299;SDS011;42209;6.376;-10.782;2024-01-15T02:05:59;2.40;;;2.22;;
56299;SDS011;42209;6.376;-10.782;2024-01-15T02:08:28;3.15;;;2.80;;
56299;SDS011;42209;6.376;-10.782;2024-01-15T02:10:57;2.28;;;2.10;;
56299;SDS011;42209;6.376;-10.782;2024-01-15T02:13:26;3.13;;;2.65;;
56299;SDS011;42209;6.376;-10.782;2024-01-15T02:15:54;2.38;;;2.17;;
56299;SDS011;42209;6.376;-10.782;2024-01-15T02:18:22;3.63;;;2.75;;
56299;SDS011;42209;6.376;-10.782;2024-01-15T02:20:51;2.65;;;2.15;;
56299;SDS011;42209;6.376;-10.782;2024-01-15T02:25:48;2.90;;;2.65;;
56299;SDS011;42209;6.376;-10.782;2024-01-15T02:28:17;4.88;;;2.55;;
56299;SDS011;42209;6.376;-10.782;2024-01-15T02:30:46;2.67;;;2.47;;
56299;SDS011;42209;6.376;-10.782;2024-01-15T02:33:14;3.13;;;2.20;;
56299;SDS011;42209;6.376;-10.782;2024-01-15T02:38:11;4.03;;;3.05;;
56299;SDS011;42209;6.376;-10.782;2024-01-15T02:43:07;2.70;;;2.50;;
56299;SDS011;42209;6.376;-10.782;2024-01-15T02:45:35;2.60;;;2.40;;
56299;SDS011;42209;6.376;-10.782;2024-01-15T02:48:04;2.75;;;2.45;;
56299;SDS011;42209;6.376;-10.782;2024-01-15T02:50:33;3.05;;;2.65;;
56299;SDS011;42209;6.376;-10.782;2024-01-15T02:53:01;3.20;;;2.67;;
56299;SDS011;42209;6.376;-10.782;2024-01-15T02:55:30;2.78;;;2.58;;
56299;SDS011;42209;6.376;-10.782;2024-01-15T02:57:59;3.17;;;2.83;;
56299;SDS011;42209;6.376;-10.782;2024-01-15T03:00:27;2.60;;;2.33;;
56299;SDS011;42209;6.376;-10.782;2024-01-15T03:02:56;3.03;;;2.55;;
56299;SDS011;42209;6.376;-10.782;2024-01-15T03:05:25;3.00;;;2.50;;
56299;SDS011;42209;6.376;-10.782;2024-01-15T03:07:53;3.35;;;2.40;;
56299;SDS011;42209;6.376;-10.782;2024-01-15T03:10:21;2.50;;;2.30;;
56299;SDS011;42209;6.376;-10.782;2024-01-15T03:12:50;2.47;;;2.28;;
56299;SDS011;42209;6.376;-10.782;2024-01-15T03:16:13;3.15;;;2.30;;
56299;SDS011;42209;6.376;-10.782;2024-01-15T03:21:09;3.90;;;2.22;;
56299;SDS011;42209;6.376;-10.782;2024-01-15T03:23:38;4.20;;;2.58;;
56299;SDS011;42209;6.376;-10.782;2024-01-15T03:26:06;2.65;;;2.45;;
56299;SDS011;42209;6.376;-10.782;2024-01-15T03:28:34;3.78;;;2.72;;
56299;SDS011;42209;6.376;-10.782;2024-01-15T03:31:03;3.17;;;2.88;;
56299;SDS011;42209;6.376;-10.782;2024-01-15T03:33:31;2.75;;;2.55;;
56299;SDS011;42209;6.376;-10.782;2024-01-15T03:36:00;3.70;;;2.50;;
56299;SDS011;42209;6.376;-10.782;2024-01-15T03:38:28;3.00;;;2.60;;
56299;SDS011;42209;6.376;-10.782;2024-01-15T03:40:56;3.03;;;2.72;;
56299;SDS011;42209;6.376;-10.782;2024-01-15T03:43:25;4.20;;;2.83;;
56299;SDS011;42209;6.376;-10.782;2024-01-15T03:45:55;3.05;;;2.58;;
56299;SDS011;42209;6.376;-10.782;2024-01-15T03:50:51;3.40;;;2.90;;
56299;SDS011;42209;6.376;-10.782;2024-01-15T03:53:20;2.72;;;2.20;;
56299;SDS011;42209;6.376;-10.782;2024-01-15T03:55:49;3.10;;;2.78;;
56299;SDS011;42209;6.376;-10.782;2024-01-15T03:58:17;4.07;;;2.42;;
56299;SDS011;42209;6.376;-10.782;2024-01-15T04:00:46;3.17;;;2.67;;
56299;SDS011;42209;6.376;-10.782;2024-01-15T04:03:14;2.95;;;2.30;;
56299;SDS011;42209;6.376;-10.782;2024-01-15T04:05:43;3.88;;;2.95;;
56299;SDS011;42209;6.376;-10.782;2024-01-15T04:10:39;3.30;;;2.67;;
56299;SDS011;42209;6.376;-10.782;2024-01-15T04:13:08;4.43;;;3.10;;
56299;SDS011;42209;6.376;-10.782;2024-01-15T04:15:36;3.22;;;2.63;;
56299;SDS011;42209;6.376;-10.782;2024-01-15T04:18:04;3.65;;;3.28;;
56299;SDS011;42209;6.376;-10.782;2024-01-15T04:20:33;5.00;;;2.63;;
56299;SDS011;42209;6.376;-10.782;2024-01-15T04:23:01;3.53;;;3.13;;
56299;SDS011;42209;6.376;-10.782;2024-01-15T04:25:30;3.45;;;2.60;;
56299;SDS011;42209;6.376;-10.782;2024-01-15T04:27:58;3.90;;;3.25;;
56299;SDS011;42209;6.376;-10.782;2024-01-15T04:30:26;4.03;;;2.70;;
56299;SDS011;42209;6.376;-10.782;2024-01-15T04:32:55;3.22;;;2.92;;
56299;SDS011;42209;6.376;-10.782;2024-01-15T04:35:24;3.83;;;3.00;;
56299;SDS011;42209;6.376;-10.782;2024-01-15T04:37:52;4.38;;;3.22;;
56299;SDS011;42209;6.376;-10.782;2024-01-15T04:40:20;3.13;;;2.25;;
56299;SDS011;42209;6.376;-10.782;2024-01-15T04:42:49;4.35;;;3.35;;
56299;SDS011;42209;6.376;-10.782;2024-01-15T04:45:17;2.88;;;2.63;;
56299;SDS011;42209;6.376;-10.782;2024-01-15T04:47:45;3.03;;;2.47;;
56299;SDS011;42209;6.376;-10.782;2024-01-15T04:50:14;3.50;;;2.60;;
56299;SDS011;42209;6.376;-10.782;2024-01-15T04:52:42;4.40;;;3.40;;
56299;SDS011;42209;6.376;-10.782;2024-01-15T04:55:11;3.10;;;2.78;;
56299;SDS011;42209;6.376;-10.782;2024-01-15T04:57:39;2.83;;;2.40;;
56299;SDS011;42209;6.376;-10.782;2024-01-15T05:00:08;3.97;;;2.28;;
56299;SDS011;42209;6.376;-10.782;2024-01-15T05:02:36;2.85;;;2.35;;
56299;SDS011;42209;6.376;-10.782;2024-01-15T05:05:05;3.63;;;2.85;;
56299;SDS011;42209;6.376;-10.782;2024-01-15T05:07:33;6.70;;;2.92;;
56299;SDS011;42209;6.376;-10.782;2024-01-15T05:10:02;3.03;;;2.67;;
56299;SDS011;42209;6.376;-10.782;2024-01-15T05:12:30;2.92;;;2.63;;
56299;SDS011;42209;6.376;-10.782;2024-01-15T05:14:59;4.45;;;3.50;;
56299;SDS011;42209;6.376;-10.782;2024-01-15T05:17:27;6.63;;;3.55;;
56299;SDS011;42209;6.376;-10.782;2024-01-15T05:19:55;5.57;;;3.90;;
56299;SDS011;42209;6.376;-10.782;2024-01-15T05:24:52;5.93;;;3.92;;
56299;SDS011;42209;6.376;-10.782;2024-01-15T05:27:20;5.40;;;4.07;;
56299;SDS011;42209;6.376;-10.782;2024-01-15T05:29:49;5.43;;;3.67;;
56299;SDS011;42209;6.376;-10.782;2024-01-15T05:32:17;5.25;;;3.75;;
56299;SDS011;42209;6.376;-10.782;2024-01-15T05:34:46;4.18;;;3.75;;
56299;SDS011;42209;6.376;-10.782;2024-01-15T05:37:15;4.30;;;3.85;;
56299;SDS011;42209;6.376;-10.782;2024-01-15T05:39:43;5.07;;;3.63;;
56299;SDS011;42209;6.376;-10.782;2024-01-15T05:42:11;5.25;;;3.72;;
56299;SDS011;42209;6.376;-10.782;2024-01-15T05:44:40;4.68;;;4.03;;
56299;SDS011;42209;6.376;-10.782;2024-01-15T05:47:08;5.32;;;4.53;;
56299;SDS011;42209;6.376;-10.782;2024-01-15T05:49:36;5.72;;;4.15;;
56299;SDS011;42209;6.376;-10.782;2024-01-15T05:52:05;4.32;;;3.42;;
56299;SDS011;42209;6.376;-10.782;2024-01-15T05:54:33;5.53;;;3.50;;
56299;SDS011;42209;6.376;-10.782;2024-01-15T05:57:02;5.95;;;4.35;;
56299;SDS011;42209;6.376;-10.782;2024-01-15T05:59:30;3.95;;;3.53;;
56299;SDS011;42209;6.376;-10.782;2024-01-15T06:01:59;4.78;;;3.88;;
56299;SDS011;42209;6.376;-10.782;2024-01-15T06:04:28;5.13;;;3.85;;
56299;SDS011;42209;6.376;-10.782;2024-01-15T06:06:56;3.88;;;3.38;;
56299;SDS011;42209;6.376;-10.782;2024-01-15T06:09:25;4.55;;;4.13;;
56299;SDS011;42209;6.376;-10.782;2024-01-15T06:11:54;6.15;;;4.28;;
56299;SDS011;42209;6.376;-10.782;2024-01-15T06:14:22;6.75;;;4.30;;
56299;SDS011;42209;6.376;-10.782;2024-01-15T06:16:51;4.35;;;3.75;;
56299;SDS011;42209;6.376;-10.782;2024-01-15T06:19:20;5.82;;;3.78;;
56299;SDS011;42209;6.376;-10.782;2024-01-15T06:21:48;4.30;;;3.90;;
56299;SDS011;42209;6.376;-10.782;2024-01-15T06:24:17;5.93;;;3.92;;
56299;SDS011;42209;6.376;-10.782;2024-01-15T06:26:48;4.03;;;3.45;;
56299;SDS011;42209;6.376;-10.782;2024-01-15T06:29:17;5.15;;;3.53;;
56299;SDS011;42209;6.376;-10.782;2024-01-15T06:31:45;5.95;;;3.42;;
56299;SDS011;42209;6.376;-10.782;2024-01-15T06:34:14;6.82;;;3.50;;
56299;SDS011;42209;6.376;-10.782;2024-01-15T06:36:43;6.18;;;3.45;;
56299;SDS011;42209;6.376;-10.782;2024-01-15T06:39:11;4.70;;;4.20;;
56299;SDS011;42209;6.376;-10.782;2024-01-15T06:44:08;5.47;;;4.20;;
56299;SDS011;42209;6.376;-10.782;2024-01-15T06:46:41;4.60;;;3.63;;
56299;SDS011;42209;6.376;-10.782;2024-01-15T06:49:10;4.18;;;3.72;;
56299;SDS011;42209;6.376;-10.782;2024-01-15T06:51:40;5.18;;;4.13;;
56299;SDS011;42209;6.376;-10.782;2024-01-15T06:54:09;5.03;;;3.65;;
56299;SDS011;42209;6.376;-10.782;2024-01-15T06:56:38;4.10;;;3.42;;
56299;SDS011;42209;6.376;-10.782;2024-01-15T06:59:06;6.60;;;3.83;;
56299;SDS011;42209;6.376;-10.782;2024-01-15T07:01:34;5.78;;;4.07;;
56299;SDS011;42209;6.376;-10.782;2024-01-15T07:04:03;4.78;;;3.83;;
56299;SDS011;42209;6.376;-10.782;2024-01-15T07:08:59;8.05;;;4.63;;
56299;SDS011;42209;6.376;-10.782;2024-01-15T07:11:28;7.70;;;5.95;;
56299;SDS011;42209;6.376;-10.782;2024-01-15T07:13:56;6.07;;;5.35;;
56299;SDS011;42209;6.376;-10.782;2024-01-15T07:19:04;13.00;;;7.53;;
56299;SDS011;42209;6.376;-10.782;2024-01-15T07:21:32;12.82;;;7.78;;
56299;SDS011;42209;6.376;-10.782;2024-01-15T07:26:29;9.32;;;6.88;;
56299;SDS011;42209;6.376;-10.782;2024-01-15T07:28:58;8.98;;;7.03;;
56299;SDS011;42209;6.376;-10.782;2024-01-15T07:31:26;15.98;;;7.20;;
56299;SDS011;42209;6.376;-10.782;2024-01-15T07:33:56;12.57;;;6.53;;
56299;SDS011;42209;6.376;-10.782;2024-01-15T07:36:24;8.27;;;6.65;;
56299;SDS011;42209;6.376;-10.782;2024-01-15T07:38:53;10.45;;;6.00;;
56299;SDS011;42209;6.376;-10.782;2024-01-15T07:41:21;10.10;;;6.35;;
56299;SDS011;42209;6.376;-10.782;2024-01-15T07:43:49;9.32;;;6.20;;
56299;SDS011;42209;6.376;-10.782;2024-01-15T07:46:19;10.02;;;5.88;;
56299;SDS011;42209;6.376;-10.782;2024-01-15T07:48:48;7.93;;;5.80;;
56299;SDS011;42209;6.376;-10.782;2024-01-15T07:51:16;9.45;;;6.55;;
56299;SDS011;42209;6.376;-10.782;2024-01-15T07:53:45;6.88;;;5.50;;
56299;SDS011;42209;6.376;-10.782;2024-01-15T07:56:13;7.43;;;5.68;;
56299;SDS011;42209;6.376;-10.782;2024-01-15T07:58:41;8.20;;;5.28;;
56299;SDS011;42209;6.376;-10.782;2024-01-15T08:01:10;7.00;;;5.97;;
56299;SDS011;42209;6.376;-10.782;2024-01-15T08:03:38;7.78;;;5.38;;
56299;SDS011;42209;6.376;-10.782;2024-01-15T08:08:36;5.93;;;4.95;;
56299;SDS011;42209;6.376;-10.782;2024-01-15T08:11:05;11.23;;;6.53;;
56299;SDS011;42209;6.376;-10.782;2024-01-15T08:13:34;6.05;;;5.45;;
56299;SDS011;42209;6.376;-10.782;2024-01-15T08:16:03;5.90;;;5.13;;
56299;SDS011;42209;6.376;-10.782;2024-01-15T08:18:31;7.47;;;4.85;;
56299;SDS011;42209;6.376;-10.782;2024-01-15T08:23:28;8.00;;;6.28;;
56299;SDS011;42209;6.376;-10.782;2024-01-15T08:25:56;12.30;;;6.97;;
56299;SDS011;42209;6.376;-10.782;2024-01-15T08:29:37;11.63;;;6.45;;
56299;SDS011;42209;6.376;-10.782;2024-01-15T08:32:05;9.85;;;7.13;;
56299;SDS011;42209;6.376;-10.782;2024-01-15T08:34:33;9.43;;;6.00;;
56299;SDS011;42209;6.376;-10.782;2024-01-15T08:37:02;7.47;;;5.40;;
56299;SDS011;42209;6.376;-10.782;2024-01-15T08:39:30;8.75;;;5.80;;
56299;SDS011;42209;6.376;-10.782;2024-01-15T08:41:59;5.72;;;5.10;;
56299;SDS011;42209;6.376;-10.782;2024-01-15T08:44:27;6.60;;;4.97;;
56299;SDS011;42209;6.376;-10.782;2024-01-15T08:46:55;9.60;;;5.95;;
56299;SDS011;42209;6.376;-10.782;2024-01-15T08:49:24;9.57;;;5.28;;
56299;SDS011;42209;6.376;-10.782;2024-01-15T08:51:52;8.32;;;5.25;;
56299;SDS011;42209;6.376;-10.782;2024-01-15T08:54:20;7.15;;;5.03;;
56299;SDS011;42209;6.376;-10.782;2024-01-15T08:56:49;7.05;;;5.43;;
56299;SDS011;42209;6.376;-10.782;2024-01-15T08:59:17;9.98;;;5.30;;
56299;SDS011;42209;6.376;-10.782;2024-01-15T09:04:14;8.00;;;5.38;;
56299;SDS011;42209;6.376;-10.782;2024-01-15T09:06:45;10.55;;;5.07;;
56299;SDS011;42209;6.376;-10.782;2024-01-15T09:09:14;6.53;;;5.07;;
56299;SDS011;42209;6.376;-10.782;2024-01-15T09:11:43;7.30;;;4.88;;
56299;SDS011;42209;6.376;-10.782;2024-01-15T09:14:12;6.72;;;4.78;;
56299;SDS011;42209;6.376;-10.782;2024-01-15T09:16:44;7.47;;;5.65;;
56299;SDS011;42209;6.376;-10.782;2024-01-15T09:19:13;7.32;;;5.65;;
56299;SDS011;42209;6.376;-10.782;2024-01-15T09:21:41;7.05;;;4.95;;
56299;SDS011;42209;6.376;-10.782;2024-01-15T09:26:38;8.88;;;4.60;;
56299;SDS011;42209;6.376;-10.782;2024-01-15T09:29:06;6.22;;;5.28;;
56299;SDS011;42209;6.376;-10.782;2024-01-15T09:31:35;5.65;;;4.70;;
56299;SDS011;42209;6.376;-10.782;2024-01-15T09:34:03;9.02;;;4.93;;
56299;SDS011;42209;6.376;-10.782;2024-01-15T09:36:32;7.80;;;5.65;;
56299;SDS011;42209;6.376;-10.782;2024-01-15T09:39:06;7.03;;;5.45;;
56299;SDS011;42209;6.376;-10.782;2024-01-15T09:41:37;9.20;;;4.78;;
56299;SDS011;42209;6.376;-10.782;2024-01-15T09:44:06;7.10;;;4.63;;
56299;SDS011;42209;6.376;-10.782;2024-01-15T09:46:35;6.88;;;5.20;;
56299;SDS011;42209;6.376;-10.782;2024-01-15T09:49:03;8.23;;;5.07;;
56299;SDS011;42209;6.376;-10.782;2024-01-15T09:55:43;6.53;;;4.55;;
56299;SDS011;42209;6.376;-10.782;2024-01-15T09:58:12;6.22;;;5.15;;
56299;SDS011;42209;6.376;-10.782;2024-01-15T10:00:41;5.55;;;4.97;;
56299;SDS011;42209;6.376;-10.782;2024-01-15T10:03:12;6.15;;;4.40;;
56299;SDS011;42209;6.376;-10.782;2024-01-15T10:05:41;7.75;;;4.97;;
56299;SDS011;42209;6.376;-10.782;2024-01-15T10:08:10;7.28;;;5.15;;
56299;SDS011;42209;6.376;-10.782;2024-01-15T10:10:39;5.35;;;4.60;;
56299;SDS011;42209;6.376;-10.782;2024-01-15T10:13:07;8.85;;;4.68;;
56299;SDS011;42209;6.376;-10.782;2024-01-15T10:18:05;6.43;;;4.63;;
56299;SDS011;42209;6.376;-10.782;2024-01-15T10:20:34;4.93;;;4.50;;
56299;SDS011;42209;6.376;-10.782;2024-01-15T10:23:02;4.70;;;4.18;;
56299;SDS011;42209;6.376;-10.782;2024-01-15T10:25:31;5.95;;;4.60;;
56299;SDS011;42209;6.376;-10.782;2024-01-15T10:28:03;6.82;;;4.97;;
56299;SDS011;42209;6.376;-10.782;2024-01-15T10:30:32;5.47;;;4.78;;
56299;SDS011;42209;6.376;-10.782;2024-01-15T10:33:02;4.75;;;4.25;;
56299;SDS011;42209;6.376;-10.782;2024-01-15T10:35:33;8.32;;;4.63;;
56299;SDS011;42209;6.376;-10.782;2024-01-15T10:38:02;5.75;;;3.55;;
56299;SDS011;42209;6.376;-10.782;2024-01-15T10:42:59;5.47;;;4.40;;
56299;SDS011;42209;6.376;-10.782;2024-01-15T10:45:27;5.40;;;4.05;;
56299;SDS011;42209;6.376;-10.782;2024-01-15T10:47:56;5.45;;;4.80;;
56299;SDS011;42209;6.376;-10.782;2024-01-15T10:50:25;5.25;;;4.00;;
56299;SDS011;42209;6.376;-10.782;2024-01-15T10:52:53;6.32;;;4.50;;
56299;SDS011;42209;6.376;-10.782;2024-01-15T10:57:59;5.15;;;3.92;;
56299;SDS011;42209;6.376;-10.782;2024-01-15T11:00:28;4.30;;;3.35;;
56299;SDS011;42209;6.376;-10.782;2024-01-15T11:02:57;6.13;;;4.03;;
56299;SDS011;42209;6.376;-10.782;2024-01-15T11:05:29;5.72;;;4.75;;
56299;SDS011;42209;6.376;-10.782;2024-01-15T11:08:01;4.85;;;4.00;;
56299;SDS011;42209;6.376;-10.782;2024-01-15T11:10:46;4.35;;;3.95;;
56299;SDS011;42209;6.376;-10.782;2024-01-15T11:16:01;4.40;;;4.00;;
56299;SDS011;42209;6.376;-10.782;2024-01-15T11:18:38;5.82;;;4.38;;
56299;SDS011;42209;6.376;-10.782;2024-01-15T11:21:26;5.10;;;3.85;;
56299;SDS011;42209;6.376;-10.782;2024-01-15T11:26:50;5.15;;;4.00;;
56299;SDS011;42209;6.376;-10.782;2024-01-15T11:32:07;4.90;;;4.15;;
56299;SDS011;42209;6.376;-10.782;2024-01-15T11:34:56;5.38;;;4.05;;
56299;SDS011;42209;6.376;-10.782;2024-01-15T11:37:27;4.88;;;3.40;;
56299;SDS011;42209;6.376;-10.782;2024-01-15T11:40:03;4.22;;;3.70;;
56299;SDS011;42209;6.376;-10.782;2024-01-15T11:42:32;5.32;;;4.50;;
56299;SDS011;42209;6.376;-10.782;2024-01-15T11:45:00;4.70;;;3.47;;
56299;SDS011;42209;6.376;-10.782;2024-01-15T11:48:15;5.80;;;3.40;;
56299;SDS011;42209;6.376;-10.782;2024-01-15T11:50:30;5.45;;;3.88;;
56299;SDS011;42209;6.376;-10.782;2024-01-15T11:53:03;4.07;;;3.35;;
56299;SDS011;42209;6.376;-10.782;2024-01-15T11:55:41;7.10;;;3.60;;
56299;SDS011;42209;6.376;-10.782;2024-01-15T11:58:12;5.00;;;3.83;;
56299;SDS011;42209;6.376;-10.782;2024-01-15T12:00:45;4.07;;;3.63;;
56299;SDS011;42209;6.376;-10.782;2024-01-15T12:03:16;5.25;;;2.95;;
56299;SDS011;42209;6.376;-10.782;2024-01-15T12:05:45;5.55;;;3.35;;
56299;SDS011;42209;6.376;-10.782;2024-01-15T12:08:13;5.50;;;3.40;;
56299;SDS011;42209;6.376;-10.782;2024-01-15T12:10:42;4.68;;;3.70;;
56299;SDS011;42209;6.376;-10.782;2024-01-15T12:13:13;4.85;;;4.22;;
56299;SDS011;42209;6.376;-10.782;2024-01-15T12:15:42;5.30;;;3.60;;
56299;SDS011;42209;6.376;-10.782;2024-01-15T12:18:12;4.25;;;3.08;;
56299;SDS011;42209;6.376;-10.782;2024-01-15T12:20:42;4.60;;;3.83;;
56299;SDS011;42209;6.376;-10.782;2024-01-15T12:23:12;6.30;;;3.88;;
56299;SDS011;42209;6.376;-10.782;2024-01-15T12:25:40;4.93;;;3.15;;
56299;SDS011;42209;6.376;-10.782;2024-01-15T12:30:37;4.47;;;4.03;;
56299;SDS011;42209;6.376;-10.782;2024-01-15T12:33:07;3.95;;;3.10;;
56299;SDS011;42209;6.376;-10.782;2024-01-15T12:35:37;4.35;;;3.95;;
56299;SDS011;42209;6.376;-10.782;2024-01-15T12:38:05;3.88;;;3.20;;
56299;SDS011;42209;6.376;-10.782;2024-01-15T12:40:33;3.70;;;3.10;;
56299;SDS011;42209;6.376;-10.782;2024-01-15T12:43:05;3.78;;;3.45;;
56299;SDS011;42209;6.376;-10.782;2024-01-15T12:45:34;4.10;;;3.72;;
56299;SDS011;42209;6.376;-10.782;2024-01-15T12:48:04;4.95;;;3.30;;
56299;SDS011;42209;6.376;-10.782;2024-01-15T12:50:35;4.15;;;3.47;;
56299;SDS011;42209;6.376;-10.782;2024-01-15T12:53:04;5.85;;;3.50;;
56299;SDS011;42209;6.376;-10.782;2024-01-15T12:55:32;3.65;;;3.35;;
56299;SDS011;42209;6.376;-10.782;2024-01-15T12:58:00;4.03;;;3.08;;
56299;SDS011;42209;6.376;-10.782;2024-01-15T13:00:29;5.45;;;3.35;;
56299;SDS011;42209;6.376;-10.782;2024-01-15T13:05:25;6.35;;;3.95;;
56299;SDS011;42209;6.376;-10.782;2024-01-15T13:07:55;4.88;;;3.33;;
56299;SDS011;42209;6.376;-10.782;2024-01-15T13:10:24;3.67;;;3.08;;
56299;SDS011;42209;6.376;-10.782;2024-01-15T13:12:52;3.35;;;2.85;;
56299;SDS011;42209;6.376;-10.782;2024-01-15T13:17:49;4.10;;;3.63;;
56299;SDS011;42209;6.376;-10.782;2024-01-15T13:20:18;3.95;;;3.10;;
56299;SDS011;42209;6.376;-10.782;2024-01-15T13:25:14;4.28;;;2.90;;
56299;SDS011;42209;6.376;-10.782;2024-01-15T13:27:43;4.85;;;3.33;;
56299;SDS011;42209;6.376;-10.782;2024-01-15T13:30:12;4.05;;;3.28;;
56299;SDS011;42209;6.376;-10.782;2024-01-15T13:32:41;3.63;;;3.33;;
56299;SDS011;42209;6.376;-10.782;2024-01-15T13:35:10;4.38;;;3.47;;
56299;SDS011;42209;6.376;-10.782;2024-01-15T13:37:39;4.95;;;3.08;;
56299;SDS011;42209;6.376;-10.782;2024-01-15T13:40:07;5.32;;;3.20;;
56299;SDS011;42209;6.376;-10.782;2024-01-15T13:42:36;5.50;;;3.65;;
56299;SDS011;42209;6.376;-10.782;2024-01-15T13:45:05;4.55;;;3.75;;
56299;SDS011;42209;6.376;-10.782;2024-01-15T13:50:02;6.18;;;3.10;;
56299;SDS011;42209;6.376;-10.782;2024-01-15T13:52:30;3.65;;;3.35;;
56299;SDS011;42209;6.376;-10.782;2024-01-15T13:54:59;6.10;;;3.88;;
56299;SDS011;42209;6.376;-10.782;2024-01-15T13:57:27;6.30;;;3.67;;
56299;SDS011;42209;6.376;-10.782;2024-01-15T13:59:56;9.38;;;3.60;;
56299;SDS011;42209;6.376;-10.782;2024-01-15T14:02:24;5.05;;;3.67;;
56299;SDS011;42209;6.376;-10.782;2024-01-15T14:04:53;11.55;;;3.72;;
56299;SDS011;42209;6.376;-10.782;2024-01-15T14:07:22;4.30;;;3.22;;
56299;SDS011;42209;6.376;-10.782;2024-01-15T14:09:50;4.57;;;3.22;;
56299;SDS011;42209;6.376;-10.782;2024-01-15T14:12:19;4.55;;;3.60;;
56299;SDS011;42209;6.376;-10.782;2024-01-15T14:17:15;5.53;;;3.67;;
56299;SDS011;42209;6.376;-10.782;2024-01-15T14:19:44;7.00;;;3.65;;
56299;SDS011;42209;6.376;-10.782;2024-01-15T14:22:12;3.25;;;2.95;;
56299;SDS011;42209;6.376;-10.782;2024-01-15T14:24:40;4.88;;;3.42;;
56299;SDS011;42209;6.376;-10.782;2024-01-15T14:27:09;6.45;;;3.40;;
56299;SDS011;42209;6.376;-10.782;2024-01-15T14:29:37;4.47;;;3.20;;
56299;SDS011;42209;6.376;-10.782;2024-01-15T14:32:06;4.80;;;3.15;;
56299;SDS011;42209;6.376;-10.782;2024-01-15T14:34:34;5.60;;;3.08;;
56299;SDS011;42209;6.376;-10.782;2024-01-15T14:37:02;6.20;;;3.40;;
56299;SDS011;42209;6.376;-10.782;2024-01-15T14:39:31;6.93;;;3.92;;
56299;SDS011;42209;6.376;-10.782;2024-01-15T14:41:59;6.28;;;3.28;;
56299;SDS011;42209;6.376;-10.782;2024-01-15T14:44:28;5.40;;;3.38;;
56299;SDS011;42209;6.376;-10.782;2024-01-15T14:46:56;3.42;;;3.13;;
56299;SDS011;42209;6.376;-10.782;2024-01-15T14:49:25;6.20;;;3.70;;
56299;SDS011;42209;6.376;-10.782;2024-01-15T14:51:53;6.05;;;3.75;;
56299;SDS011;42209;6.376;-10.782;2024-01-15T14:54:22;4.25;;;3.55;;
56299;SDS011;42209;6.376;-10.782;2024-01-15T14:56:51;4.80;;;3.65;;
56299;SDS011;42209;6.376;-10.782;2024-01-15T15:01:47;4.70;;;3.83;;
56299;SDS011;42209;6.376;-10.782;2024-01-15T15:06:44;3.28;;;2.97;;
56299;SDS011;42209;6.376;-10.782;2024-01-15T15:09:13;6.03;;;3.60;;
56299;SDS011;42209;6.376;-10.782;2024-01-15T15:11:41;3.30;;;3.00;;
56299;SDS011;42209;6.376;-10.782;2024-01-15T15:14:10;5.07;;;3.28;;
56299;SDS011;42209;6.376;-10.782;2024-01-15T15:16:38;4.10;;;3.35;;
56299;SDS011;42209;6.376;-10.782;2024-01-15T15:19:06;4.38;;;3.55;;
56299;SDS011;42209;6.376;-10.782;2024-01-15T15:21:35;4.05;;;3.38;;
56299;SDS011;42209;6.376;-10.782;2024-01-15T15:24:04;8.02;;;3.95;;
56299;SDS011;42209;6.376;-10.782;2024-01-15T15:26:32;5.47;;;4.00;;
56299;SDS011;42209;6.376;-10.782;2024-01-15T15:29:01;5.97;;;3.25;;
56299;SDS011;42209;6.376;-10.782;2024-01-15T15:31:29;3.33;;;2.90;;
56299;SDS011;42209;6.376;-10.782;2024-01-15T15:33:58;4.20;;;3.30;;
56299;SDS011;42209;6.376;-10.782;2024-01-15T15:36:26;5.00;;;3.60;;
56299;SDS011;42209;6.376;-10.782;2024-01-15T15:38:55;4.97;;;2.80;;
56299;SDS011;42209;6.376;-10.782;2024-01-15T15:41:24;7.55;;;3.30;;
56299;SDS011;42209;6.376;-10.782;2024-01-15T15:43:53;4.20;;;3.35;;
56299;SDS011;42209;6.376;-10.782;2024-01-15T15:46:21;6.85;;;3.47;;
56299;SDS011;42209;6.376;-10.782;2024-01-15T15:48:50;4.25;;;3.10;;
56299;SDS011;42209;6.376;-10.782;2024-01-15T15:51:18;5.63;;;3.83;;
56299;SDS011;42209;6.376;-10.782;2024-01-15T15:53:47;7.35;;;4.32;;
56299;SDS011;42209;6.376;-10.782;2024-01-15T15:56:15;5.07;;;3.45;;
56299;SDS011;42209;6.376;-10.782;2024-01-15T15:58:44;5.57;;;3.40;;
56299;SDS011;42209;6.376;-10.782;2024-01-15T16:01:12;20.73;;;4.13;;
56299;SDS011;42209;6.376;-10.782;2024-01-15T16:03:41;9.68;;;3.22;;
56299;SDS011;42209;6.376;-10.782;2024-01-15T16:06:09;8.27;;;3.10;;
56299;SDS011;42209;6.376;-10.782;2024-01-15T16:08:38;9.13;;;3.42;;
56299;SDS011;42209;6.376;-10.782;2024-01-15T16:11:07;10.00;;;4.18;;
56299;SDS011;42209;6.376;-10.782;2024-01-15T16:16:03;8.48;;;3.28;;
56299;SDS011;42209;6.376;-10.782;2024-01-15T16:21:40;4.70;;;2.85;;